Time;durP1;ratioP1;P1;durP2;ratioP2;P2;SDS_P1;SDS_P2;PMS_P1;PMS_P2;Temp;Humidity;BMP_temperature;BMP_pressure;BME280_temperature;BME280_humidity;BME280_pressure;Samples;Min_cycle;Max_cycle;Signal;HPM_P1;HPM_P2
2021/06/30 00:01:16;;;;;;;;;;;;;;;-142.75;73.98;76804.53;5081739;28;19912;-78
2021/06/30 00:03:41;;;;;;;;;;;;;;;-142.75;74.02;76802.56;5089625;28;19912;-78
2021/06/30 00:06:07;;;;;;;;;;;;;;;-142.75;74.10;76802.56;5076367;28;19923;-80
2021/06/30 00:08:32;;;;;;;;;;;;;;;-142.75;73.83;76804.53;5092306;28;19951;-80
2021/06/30 00:10:58;;;;;;;;;;;;;;;-142.75;73.89;76794.69;5082315;28;19934;-79
2021/06/30 00:13:24;;;;;;;;;;;;;;;-142.75;73.98;76798.66;5079701;28;19927;-80
2021/06/30 00:15:50;;;;;;;;;;;;;;;-142.75;73.77;76800.63;5077717;28;19912;-79
2021/06/30 00:18:15;;;;;;;;;;;;;;;-142.75;73.78;76812.41;5073344;28;20393;-79
2021/06/30 00:20:41;;;;;;;;;;;;;;;-142.75;74.04;76814.38;5090414;28;19927;-79
2021/06/30 00:23:06;;;;;;;;;;;;;;;-142.75;74.24;76818.31;5085871;28;19954;-79
2021/06/30 00:25:31;;;;;;;;;;;;;;;-142.75;74.44;76818.31;5092098;28;19971;-80
2021/06/30 00:27:57;;;;;;;;;;;;;;;-142.75;74.46;76816.34;5082872;28;19951;-81
2021/06/30 00:30:22;;;;;;;;;;;;;;;-142.75;74.41;76820.28;5091247;28;19912;-79
2021/06/30 00:32:47;;;;;;;;;;;;;;;-142.75;74.17;76826.19;5091352;28;19919;-79
2021/06/30 00:35:13;;;;;;;;;;;;;;;-142.75;74.32;76822.25;5084001;28;19912;-80
2021/06/30 00:37:38;;;;;;;;;;;;;;;-142.75;74.39;76816.34;5077531;28;19913;-81
2021/06/30 00:40:04;;;;;;;;;;;;;;;-142.75;74.26;76818.31;5075828;28;19934;-79
2021/06/30 00:42:30;;;;;;;;;;;;;;;-142.75;74.35;76816.34;5076540;28;19913;-78
2021/06/30 00:44:55;;;;;;;;;;;;;;;-142.75;74.43;76810.44;5083178;28;19924;-78
2021/06/30 00:47:21;;;;;;;;;;;;;;;-142.75;74.61;76816.34;5090448;28;19922;-80
2021/06/30 00:49:46;;;;;;;;;;;;;;;-142.75;74.66;76816.34;5079291;28;19912;-78
2021/06/30 00:52:12;;;;;;;;;;;;;;;-142.75;74.80;76814.38;5074074;28;19920;-81
2021/06/30 00:54:37;;;;;;;;;;;;;;;-142.75;74.66;76818.31;5090753;28;19978;-80
2021/06/30 00:57:02;;;;;;;;;;;;;;;-142.75;74.90;76814.38;5077947;28;19973;-80
2021/06/30 00:59:28;;;;;;;;;;;;;;;-142.75;74.90;76808.50;5077125;28;20015;-80
2021/06/30 01:01:53;;;;;;;;;;;;;;;-142.75;74.90;76806.50;5076952;28;19924;-80
2021/06/30 01:04:18;;;;;;;;;;;;;;;-142.75;74.85;76814.38;5081020;28;20633;-79
2021/06/30 01:06:44;;;;;;;;;;;;;;;-142.75;74.88;76810.44;5089806;28;19928;-79
2021/06/30 01:09:09;;;;;;;;;;;;;;;-142.75;75.01;76810.44;5077767;28;19924;-79
2021/06/30 01:11:35;;;;;;;;;;;;;;;-142.75;75.01;76820.28;5081001;28;19912;-79
2021/06/30 01:14:00;;;;;;;;;;;;;;;-142.75;74.90;76820.28;5079969;28;19939;-79
2021/06/30 01:16:25;;;;;;;;;;;;;;;-142.75;74.88;76818.31;5089233;28;19924;-79
2021/06/30 01:18:50;;;;;;;;;;;;;;;-142.75;75.02;76816.34;5089530;28;19977;-80
2021/06/30 01:21:16;;;;;;;;;;;;;;;-142.75;74.98;76816.34;5077689;28;19924;-78
2021/06/30 01:23:42;;;;;;;;;;;;;;;-142.75;75.17;76810.44;5093295;28;20283;-78
2021/06/30 01:26:07;;;;;;;;;;;;;;;-142.75;74.97;76810.44;5091290;28;19969;-77
2021/06/30 01:28:33;;;;;;;;;;;;;;;-142.75;75.05;76804.53;5085135;28;19915;-78
2021/06/30 01:30:58;;;;;;;;;;;;;;;-142.75;75.02;76802.56;5092402;28;19919;-78
2021/06/30 01:33:24;;;;;;;;;;;;;;;-142.75;75.21;76802.56;5080650;28;20270;-78
2021/06/30 01:35:50;;;;;;;;;;;;;;;-142.75;75.07;76800.63;5092272;28;19912;-78
2021/06/30 01:38:19;;;;;;;;;;;;;;;-142.75;74.87;76804.53;5081242;28;19915;-78
2021/06/30 01:40:44;;;;;;;;;;;;;;;-142.75;74.67;76802.56;5080837;28;19912;-80
2021/06/30 01:43:10;;;;;;;;;;;;;;;-142.75;74.57;76808.50;5081913;28;20274;-79
2021/06/30 01:45:35;;;;;;;;;;;;;;;-142.75;74.47;76810.44;5076036;28;19916;-81
2021/06/30 01:48:00;;;;;;;;;;;;;;;-142.75;74.36;76812.41;5084754;28;19919;-78
2021/06/30 01:50:25;;;;;;;;;;;;;;;-142.75;74.30;76816.34;5092616;28;19959;-79
2021/06/30 01:52:51;;;;;;;;;;;;;;;-142.75;74.43;76822.25;5084011;28;19912;-79
2021/06/30 01:55:16;;;;;;;;;;;;;;;-142.75;73.98;76822.25;5081077;28;19912;-80
2021/06/30 01:57:44;;;;;;;;;;;;;;;-142.75;74.02;76830.13;5092506;28;19920;-80
2021/06/30 02:00:10;;;;;;;;;;;;;;;-142.75;73.89;76836.03;5081628;28;19947;-79
2021/06/30 02:02:35;;;;;;;;;;;;;;;-142.75;73.91;76838.00;5082203;28;22475;-79
2021/06/30 02:05:07;;;;;;;;;;;;;;;-142.75;74.34;76839.97;5079111;28;19954;-77
2021/06/30 02:07:32;;;;;;;;;;;;;;;-142.75;74.38;76847.84;5091863;28;20273;-79
2021/06/30 02:09:58;;;;;;;;;;;;;;;-142.75;74.41;76845.88;5091799;28;19919;-78
2021/06/30 02:12:23;;;;;;;;;;;;;;;-142.75;74.34;76853.75;5079915;28;20014;-79
2021/06/30 02:14:48;;;;;;;;;;;;;;;-142.75;74.54;76849.81;5092032;28;19981;-80
2021/06/30 02:17:18;;;;;;;;;;;;;;;-142.75;74.65;76845.88;5088385;28;20434;-79
2021/06/30 02:19:43;;;;;;;;;;;;;;;-142.75;74.63;76847.84;5092166;28;19924;-79
2021/06/30 02:22:08;;;;;;;;;;;;;;;-142.75;74.81;76843.91;5092033;28;20438;-79
2021/06/30 02:24:34;;;;;;;;;;;;;;;-142.75;74.77;76843.91;5083413;28;20373;-77
2021/06/30 02:26:59;;;;;;;;;;;;;;;-142.75;74.77;76841.94;5091938;28;19916;-76
2021/06/30 02:29:24;;;;;;;;;;;;;;;-142.75;74.59;76845.88;5084413;28;19912;-78
2021/06/30 02:31:49;;;;;;;;;;;;;;;-142.75;74.89;76849.81;5091880;28;20377;-80
2021/06/30 02:34:14;;;;;;;;;;;;;;;-142.75;75.10;76845.88;5091295;28;19976;-80
2021/06/30 02:36:39;;;;;;;;;;;;;;;-142.75;74.99;76853.75;5083574;28;19912;-80
2021/06/30 02:39:05;;;;;;;;;;;;;;;-142.75;75.36;76853.75;5080478;28;19947;-81
2021/06/30 02:41:30;;;;;;;;;;;;;;;-142.75;75.24;76857.69;5080142;28;19927;-80
2021/06/30 02:43:55;;;;;;;;;;;;;;;-142.75;75.59;76861.63;5092296;28;20377;-80
2021/06/30 02:46:20;;;;;;;;;;;;;;;-142.75;75.76;76857.69;5091638;28;19927;-80
2021/06/30 02:48:45;;;;;;;;;;;;;;;-142.75;75.94;76861.63;5081967;28;19924;-81
2021/06/30 02:51:11;;;;;;;;;;;;;;;-142.75;75.74;76865.56;5082856;28;19989;-79
2021/06/30 02:53:36;;;;;;;;;;;;;;;-142.75;75.77;76867.53;5081785;28;20540;-80
2021/06/30 02:56:02;;;;;;;;;;;;;;;-142.75;75.81;76877.38;5092136;28;19993;-79
2021/06/30 02:58:27;;;;;;;;;;;;;;;-142.75;76.03;76871.47;5080097;28;19916;-79
2021/06/30 03:00:53;;;;;;;;;;;;;;;-142.75;76.15;76863.59;5081736;28;19934;-78
2021/06/30 03:03:18;;;;;;;;;;;;;;;-142.75;76.25;76863.59;5083891;28;19912;-80
2021/06/30 03:05:43;;;;;;;;;;;;;;;-142.75;75.94;76861.63;5084408;28;19916;-78
2021/06/30 03:08:08;;;;;;;;;;;;;;;-142.75;75.81;76869.50;5083858;28;20433;-79
2021/06/30 03:10:34;;;;;;;;;;;;;;;-142.75;75.72;76869.50;5079131;28;19918;-80
2021/06/30 03:12:59;;;;;;;;;;;;;;;-142.75;75.92;76865.56;5079514;28;19973;-79
2021/06/30 03:15:24;;;;;;;;;;;;;;;-142.75;76.03;76859.66;5085250;28;20010;-78
2021/06/30 03:17:50;;;;;;;;;;;;;;;-142.75;75.76;76873.44;5090894;28;20006;-75
2021/06/30 03:20:15;;;;;;;;;;;;;;;-142.75;75.62;76881.31;5085410;28;20403;-79
2021/06/30 03:22:41;;;;;;;;;;;;;;;-142.75;75.32;76897.06;5090784;28;19912;-78
2021/06/30 03:25:07;;;;;;;;;;;;;;;-142.75;75.30;76902.97;5083383;28;19912;-79
2021/06/30 03:27:32;;;;;;;;;;;;;;;-142.75;75.31;76899.03;5081999;28;19923;-80
2021/06/30 03:29:57;;;;;;;;;;;;;;;-142.75;75.52;76906.91;5090081;28;19912;-78
2021/06/30 03:32:22;;;;;;;;;;;;;;;-142.75;75.42;76906.91;5080191;28;20010;-78
2021/06/30 03:34:48;;;;;;;;;;;;;;;-142.75;75.27;76916.75;5083257;28;19911;-78
2021/06/30 03:37:13;;;;;;;;;;;;;;;-142.75;75.26;76914.78;5083285;28;19912;-79
2021/06/30 03:39:38;;;;;;;;;;;;;;;-142.75;74.74;76922.66;5086080;28;19915;-80
2021/06/30 03:42:04;;;;;;;;;;;;;;;-142.75;74.87;76916.75;5090348;28;19912;-78
2021/06/30 03:44:29;;;;;;;;;;;;;;;-142.75;74.97;76912.81;5083477;28;19912;-79
2021/06/30 03:46:54;;;;;;;;;;;;;;;-142.75;74.63;76924.63;5090153;28;20221;-78
2021/06/30 03:49:20;;;;;;;;;;;;;;;-142.75;74.69;76914.78;5081724;28;19912;-79
2021/06/30 03:51:45;;;;;;;;;;;;;;;-142.75;74.36;76918.72;5081682;28;19923;-78
2021/06/30 03:54:10;;;;;;;;;;;;;;;-142.75;74.35;76918.72;5091281;28;19912;-78
2021/06/30 03:56:36;;;;;;;;;;;;;;;-142.75;74.57;76920.69;5078787;28;20284;-81
2021/06/30 03:59:01;;;;;;;;;;;;;;;-142.75;74.46;76920.69;5081438;28;20011;-80
2021/06/30 04:01:26;;;;;;;;;;;;;;;-142.75;74.66;76912.81;5079048;28;19916;-79
2021/06/30 04:03:54;;;;;;;;;;;;;;;-142.75;74.56;76912.81;5090374;28;20006;-79
2021/06/30 04:06:20;;;;;;;;;;;;;;;-142.75;74.37;76920.69;5079054;28;19959;-80
2021/06/30 04:08:46;;;;;;;;;;;;;;;-142.75;74.17;76926.59;5074096;28;19943;-80
2021/06/30 04:11:11;;;;;;;;;;;;;;;-142.75;74.16;76924.63;5089838;28;19912;-79
2021/06/30 04:13:36;;;;;;;;;;;;;;;-142.75;74.36;76920.69;5080721;28;20342;-81
2021/06/30 04:16:01;;;;;;;;;;;;;;;-142.75;74.06;76928.56;5090561;28;20389;-79
2021/06/30 04:18:27;;;;;;;;;;;;;;;-142.75;74.29;76924.63;5091592;28;19920;-80
2021/06/30 04:20:52;;;;;;;;;;;;;;;-142.75;74.27;76920.69;5078493;28;19912;-80
2021/06/30 04:23:17;;;;;;;;;;;;;;;-142.75;74.50;76924.63;5091074;28;20319;-81
2021/06/30 04:25:42;;;;;;;;;;;;;;;-142.75;74.49;76916.75;5090175;28;19912;-79
2021/06/30 04:28:07;;;;;;;;;;;;;;;-142.75;74.15;76918.72;5078570;28;19912;-79
2021/06/30 04:30:32;;;;;;;;;;;;;;;-142.75;74.54;76912.81;5075313;28;19920;-79
2021/06/30 04:32:58;;;;;;;;;;;;;;;-142.75;74.35;76924.63;5090303;28;19977;-81
2021/06/30 04:35:23;;;;;;;;;;;;;;;-142.75;74.65;76920.69;5083044;28;19912;-80
2021/06/30 04:37:49;;;;;;;;;;;;;;;-142.75;74.63;76926.59;5080927;28;19919;-81
2021/06/30 04:40:14;;;;;;;;;;;;;;;-142.75;74.65;76918.72;5089634;28;19916;-80
2021/06/30 04:42:39;;;;;;;;;;;;;;;-142.75;75.04;76916.75;5079640;28;19936;-80
2021/06/30 04:45:05;;;;;;;;;;;;;;;-142.75;75.05;76910.84;5089718;28;19912;-79
2021/06/30 04:47:30;;;;;;;;;;;;;;;-142.75;75.28;76912.81;5089586;28;19916;-79
2021/06/30 04:49:55;;;;;;;;;;;;;;;-142.75;75.54;76901.00;5077036;28;19920;-80
2021/06/30 04:52:20;;;;;;;;;;;;;;;-142.75;75.59;76904.94;5088896;28;19911;-79
2021/06/30 04:54:45;;;;;;;;;;;;;;;-142.75;75.86;76901.00;5081398;28;19918;-79
2021/06/30 04:57:11;;;;;;;;;;;;;;;-142.75;75.67;76914.78;5083458;28;19973;-78
2021/06/30 04:59:36;;;;;;;;;;;;;;;-142.75;76.00;76912.81;5085634;28;20381;-78
2021/06/30 05:02:01;;;;;;;;;;;;;;;-142.75;75.96;76912.81;5077944;28;19931;-79
2021/06/30 05:04:26;;;;;;;;;;;;;;;-142.75;75.88;76916.75;5093469;28;20326;-79
2021/06/30 05:06:52;;;;;;;;;;;;;;;-142.75;76.06;76914.78;5084898;28;20289;-79
2021/06/30 05:09:17;;;;;;;;;;;;;;;-142.75;76.00;76920.69;5080122;28;19916;-80
2021/06/30 05:11:42;;;;;;;;;;;;;;;-142.75;76.05;76920.69;5093135;28;19912;-80
2021/06/30 05:14:07;;;;;;;;;;;;;;;-142.75;76.14;76914.78;5095043;28;19912;-80
2021/06/30 05:16:32;;;;;;;;;;;;;;;-142.75;75.97;76920.69;5081372;28;20385;-80
2021/06/30 05:18:57;;;;;;;;;;;;;;;-142.75;75.97;76912.81;5095234;28;19919;-79
2021/06/30 05:21:23;;;;;;;;;;;;;;;-142.75;75.94;76904.94;5094309;28;19920;-79
2021/06/30 05:23:49;;;;;;;;;;;;;;;-142.75;76.06;76920.69;5088302;28;19916;-81
2021/06/30 05:26:14;;;;;;;;;;;;;;;-142.75;76.26;76910.84;5081161;28;19990;-80
2021/06/30 05:28:39;;;;;;;;;;;;;;;-142.75;76.30;76906.91;5083860;28;20327;-80
2021/06/30 05:31:05;;;;;;;;;;;;;;;-142.75;76.44;76902.97;5083898;28;19916;-80
2021/06/30 05:33:30;;;;;;;;;;;;;;;-142.75;76.40;76899.03;5094598;28;19912;-81
2021/06/30 05:35:55;;;;;;;;;;;;;;;-142.75;76.46;76904.94;5093391;28;20372;-81
2021/06/30 05:38:22;;;;;;;;;;;;;;;-142.75;76.34;76901.00;5093708;28;19919;-80
2021/06/30 05:40:47;;;;;;;;;;;;;;;-142.75;76.46;76893.13;5084611;28;19912;-80
2021/06/30 05:43:12;;;;;;;;;;;;;;;-142.75;76.30;76885.25;5087900;28;19920;-80
2021/06/30 05:45:37;;;;;;;;;;;;;;;-142.75;76.18;76883.28;5089907;28;19912;-80
2021/06/30 05:48:02;;;;;;;;;;;;;;;-142.75;76.11;76881.31;5093174;28;19919;-79
2021/06/30 05:50:28;;;;;;;;;;;;;;;-142.75;75.63;76889.19;5075193;28;19919;-80
2021/06/30 05:52:53;;;;;;;;;;;;;;;-142.75;75.62;76879.34;5093688;28;19912;-79
2021/06/30 05:55:18;;;;;;;;;;;;;;;-142.75;75.54;76885.25;5092792;28;19966;-79
2021/06/30 05:57:43;;;;;;;;;;;;;;;-142.75;75.03;76889.19;5093235;28;20331;-79
2021/06/30 06:00:13;;;;;;;;;;;;;;;-142.75;75.02;76881.31;5092567;28;19919;-79
2021/06/30 06:02:38;;;;;;;;;;;;;;;-142.75;75.13;76877.38;5086395;28;19920;-79
2021/06/30 06:05:04;;;;;;;;;;;;;;;-142.75;75.05;76881.31;5078347;28;19912;-79
2021/06/30 06:07:29;;;;;;;;;;;;;;;-142.75;75.21;76869.50;5082219;28;19916;-78
2021/06/30 06:09:54;;;;;;;;;;;;;;;-142.75;74.99;76869.50;5082802;28;19957;-79
2021/06/30 06:12:20;;;;;;;;;;;;;;;-142.75;74.75;76871.47;5075019;28;19912;-80
2021/06/30 06:14:45;;;;;;;;;;;;;;;-142.75;74.63;76869.50;5083681;28;19942;-79
2021/06/30 06:17:10;;;;;;;;;;;;;;;-142.75;74.81;76865.56;5086530;28;19958;-79
2021/06/30 06:19:36;;;;;;;;;;;;;;;-142.75;74.93;76857.69;5092050;28;19915;-79
2021/06/30 06:22:04;;;;;;;;;;;;;;;-142.75;74.90;76859.66;5082027;28;19918;-78
2021/06/30 06:24:29;;;;;;;;;;;;;;;-142.75;74.87;76865.56;5085961;28;19912;-80
2021/06/30 06:26:55;;;;;;;;;;;;;;;-142.75;74.97;76863.59;5080159;28;19935;-79
2021/06/30 06:29:20;;;;;;;;;;;;;;;-142.75;75.01;76867.53;5085782;28;20005;-80
2021/06/30 06:31:47;;;;;;;;;;;;;;;-142.75;75.03;76867.53;5075287;28;19922;-80
2021/06/30 06:34:19;;;;;;;;;;;;;;;-142.75;74.96;76873.44;5080754;28;19912;-80
2021/06/30 06:36:44;;;;;;;;;;;;;;;-142.75;75.12;76865.56;5091329;28;19958;-80
2021/06/30 06:39:09;;;;;;;;;;;;;;;-142.75;74.84;76867.53;5084793;28;20323;-79
2021/06/30 06:41:34;;;;;;;;;;;;;;;-142.75;74.72;76865.56;5092370;28;20019;-80
2021/06/30 06:44:00;;;;;;;;;;;;;;;-142.75;74.96;76861.63;5082047;28;19912;-78
2021/06/30 06:46:25;;;;;;;;;;;;;;;-142.75;74.86;76857.69;5081221;28;19924;-79
2021/06/30 06:48:50;;;;;;;;;;;;;;;-142.75;74.75;76855.72;5085580;28;19912;-81
2021/06/30 06:51:15;;;;;;;;;;;;;;;-142.75;74.87;76845.88;5091556;28;20296;-79
2021/06/30 06:53:40;;;;;;;;;;;;;;;-142.75;74.90;76839.97;5080656;28;19912;-79
2021/06/30 06:56:10;;;;;;;;;;;;;;;-142.75;74.66;76841.94;5091917;28;19956;-80
2021/06/30 06:58:35;;;;;;;;;;;;;;;-142.75;74.67;76838.00;5081187;28;19950;-80
2021/06/30 07:01:00;;;;;;;;;;;;;;;-142.75;74.92;76836.03;5085945;28;20365;-82
2021/06/30 07:03:25;;;;;;;;;;;;;;;-142.75;74.98;76836.03;5085100;28;19942;-81
2021/06/30 07:05:50;;;;;;;;;;;;;;;-142.75;75.18;76836.03;5076894;28;19923;-81
2021/06/30 07:08:16;;;;;;;;;;;;;;;-142.75;75.57;76820.28;5086193;28;19952;-81
2021/06/30 07:10:41;;;;;;;;;;;;;;;-142.75;75.34;76824.22;5077760;28;19995;-80
2021/06/30 07:13:06;;;;;;;;;;;;;;;-142.75;75.24;76816.34;5083656;28;19922;-80
2021/06/30 07:15:31;;;;;;;;;;;;;;;-142.75;75.13;76806.50;5078222;28;19912;-79
2021/06/30 07:17:56;;;;;;;;;;;;;;;-142.75;74.67;76808.50;5086064;28;19919;-80
2021/06/30 07:20:22;;;;;;;;;;;;;;;-142.75;74.74;76802.56;5089818;28;19912;-79
2021/06/30 07:22:47;;;;;;;;;;;;;;;-142.75;74.89;76790.78;5090791;28;20454;-80
2021/06/30 07:25:14;;;;;;;;;;;;;;;-142.75;74.75;76784.88;5091017;28;19912;-81
2021/06/30 07:27:39;;;;;;;;;;;;;;;-142.75;74.01;76790.78;5073943;28;19946;-81
2021/06/30 07:30:04;;;;;;;;;;;;;;;-142.75;74.17;76777.00;5081827;28;20344;-81
2021/06/30 07:32:30;;;;;;;;;;;;;;;-142.75;74.24;76777.00;5091679;28;19916;-79
2021/06/30 07:34:55;;;;;;;;;;;;;;;-142.75;74.23;76769.13;5084583;28;19916;-80
2021/06/30 07:37:20;;;;;;;;;;;;;;;-142.75;73.94;76771.09;5090325;28;19912;-81
2021/06/30 07:39:45;;;;;;;;;;;;;;;-142.75;73.98;76767.16;5079279;28;19916;-78
2021/06/30 07:42:10;;;;;;;;;;;;;;;-142.75;73.31;76769.13;5079443;28;19944;-79
2021/06/30 07:44:36;;;;;;;;;;;;;;;-142.75;72.43;76767.16;5089983;28;19990;-79
2021/06/30 07:47:01;;;;;;;;;;;;;;;-142.75;71.93;76767.16;5081548;28;19916;-80
2021/06/30 07:49:26;;;;;;;;;;;;;;;-142.75;72.04;76767.16;5090772;28;19916;-80
2021/06/30 07:51:51;;;;;;;;;;;;;;;-142.75;72.08;76769.13;5079618;28;19916;-80
2021/06/30 07:54:17;;;;;;;;;;;;;;;-142.75;71.71;76755.34;5080706;28;19912;-81
2021/06/30 07:56:43;;;;;;;;;;;;;;;-142.75;71.90;76745.50;5082173;28;20388;-82
2021/06/30 07:59:11;;;;;;;;;;;;;;;-142.75;72.12;76743.53;5091004;28;19912;-81
2021/06/30 08:01:38;;;;;;;;;;;;;;;-142.75;71.88;76735.66;5089918;28;20030;-79
2021/06/30 08:04:05;;;;;;;;;;;;;;;-142.75;71.34;76731.72;5090209;28;19912;-79
2021/06/30 08:06:30;;;;;;;;;;;;;;;-142.75;70.50;76741.56;5088752;28;20723;-79
2021/06/30 08:08:55;;;;;;;;;;;;;;;-142.75;70.73;76745.50;5089458;28;20053;-78
2021/06/30 08:11:23;;;;;;;;;;;;;;;-142.75;70.80;76755.34;5088717;28;19964;-78
2021/06/30 08:13:49;;;;;;;;;;;;;;;-142.75;71.48;76755.34;5075368;28;19913;-77
2021/06/30 08:16:15;;;;;;;;;;;;;;;-142.75;71.03;76771.09;5089838;28;19935;-79
2021/06/30 08:18:40;;;;;;;;;;;;;;;-142.75;70.92;76775.03;5089952;28;20010;-81
2021/06/30 08:21:05;;;;;;;;;;;;;;;-142.75;71.07;76777.00;5077519;28;19916;-79
2021/06/30 08:23:30;;;;;;;;;;;;;;;-142.75;71.52;76773.06;5084898;28;19912;-80
2021/06/30 08:25:55;;;;;;;;;;;;;;;-142.75;71.65;76765.19;5090602;28;19920;-79
2021/06/30 08:28:25;;;;;;;;;;;;;;;-142.75;71.15;76769.13;5078061;28;19912;-81
2021/06/30 08:30:51;;;;;;;;;;;;;;;-142.75;72.00;76759.28;5090550;28;19912;-80
2021/06/30 08:33:16;;;;;;;;;;;;;;;-142.75;71.93;76755.34;5091318;28;19951;-79
2021/06/30 08:35:42;;;;;;;;;;;;;;;-142.75;71.13;76757.31;5082627;28;19912;-78
2021/06/30 08:38:07;;;;;;;;;;;;;;;-142.75;70.96;76749.44;5090234;28;20322;-78
2021/06/30 08:40:33;;;;;;;;;;;;;;;-142.75;71.21;76747.47;5079230;28;19912;-78
2021/06/30 08:42:58;;;;;;;;;;;;;;;-142.75;71.05;76747.47;5089920;28;20019;-78
2021/06/30 08:45:23;;;;;;;;;;;;;;;-142.75;71.10;76739.59;5082047;28;20285;-79
2021/06/30 08:47:52;;;;;;;;;;;;;;;-142.75;71.33;76737.63;5090514;28;20300;-82
2021/06/30 08:50:17;;;;;;;;;;;;;;;-142.75;71.63;76735.66;5090940;28;19916;-79
2021/06/30 08:52:45;;;;;;;;;;;;;;;-142.75;71.68;76751.41;5080687;28;19974;-81
2021/06/30 08:55:12;;;;;;;;;;;;;;;-142.75;72.32;76743.53;5081494;28;20258;-81
2021/06/30 08:57:38;;;;;;;;;;;;;;;-142.75;72.24;76741.56;5077698;28;19916;-81
2021/06/30 09:00:05;;;;;;;;;;;;;;;-142.75;72.54;76731.72;5081153;28;19919;-80
2021/06/30 09:02:30;;;;;;;;;;;;;;;-142.75;72.34;76739.59;5088980;28;20011;-80
2021/06/30 09:07:52;;;;;;;;;;;;;;;-142.75;72.72;76719.91;5074290;28;19954;-80
2021/06/30 09:10:28;;;;;;;;;;;;;;;-142.75;71.96;76723.84;5078375;28;19978;-79
2021/06/30 09:12:53;;;;;;;;;;;;;;;-142.75;71.85;76712.03;5082088;28;20393;-79
2021/06/30 09:15:19;;;;;;;;;;;;;;;-142.75;71.40;76704.16;5090597;28;19919;-78
2021/06/30 09:17:46;;;;;;;;;;;;;;;-142.75;70.72;76692.34;5091384;28;19912;-80
2021/06/30 09:20:12;;;;;;;;;;;;;;;-142.75;70.64;76684.47;5084541;28;19912;-79
2021/06/30 09:22:39;;;;;;;;;;;;;;;-142.75;71.18;76660.84;5090570;28;19927;-80
2021/06/30 09:25:05;;;;;;;;;;;;;;;-142.75;70.39;76635.25;5078626;28;20176;-80
2021/06/30 09:27:37;;;;;;;;;;;;;;;-142.75;69.35;76629.34;5080312;28;20373;-79
2021/06/30 09:30:07;;;;;;;;;;;;;;;-142.75;68.57;76625.41;5081634;28;19963;-80
2021/06/30 09:32:32;;;;;;;;;;;;;;;-142.75;67.96;76613.59;5084460;28;20006;-80
2021/06/30 09:35:18;;;;;;;;;;;;;;;-142.75;67.63;76613.59;5090139;28;19963;-78
2021/06/30 09:37:47;;;;;;;;;;;;;;;-142.75;67.72;76617.53;5082369;28;19912;-79
2021/06/30 09:40:13;;;;;;;;;;;;;;;-142.75;68.61;76611.63;5089999;28;19912;-80
2021/06/30 09:42:38;;;;;;;;;;;;;;;-142.75;67.49;76611.63;5091907;28;19931;-81
2021/06/30 09:45:09;;;;;;;;;;;;;;;-142.75;68.17;76601.78;5094079;28;19912;-79
2021/06/30 09:47:44;;;;;;;;;;;;;;;-142.75;68.00;76572.25;5094651;28;19955;-80
2021/06/30 09:50:09;;;;;;;;;;;;;;;-142.75;66.06;76558.47;5094226;28;20554;-78
2021/06/30 09:52:40;;;;;;;;;;;;;;;-142.75;67.62;76554.53;5085533;28;19922;-78
2021/06/30 09:55:21;;;;;;;;;;;;;;;-142.75;67.19;76562.41;5094008;28;19912;-78
2021/06/30 09:57:46;;;;;;;;;;;;;;;-142.75;68.38;76603.75;5092844;28;20008;-79
2021/06/30 10:00:12;;;;;;;;;;;;;;;-142.75;69.15;76645.09;5087887;28;20361;-79
2021/06/30 10:02:39;;;;;;;;;;;;;;;-142.75;69.91;76680.53;5088566;28;19927;-80
2021/06/30 10:05:04;;;;;;;;;;;;;;;-142.75;71.17;76680.53;5080377;28;19912;-78
2021/06/30 10:07:30;;;;;;;;;;;;;;;-142.75;71.38;76692.34;5089725;28;20384;-82
2021/06/30 10:09:55;;;;;;;;;;;;;;;-142.75;71.75;76682.50;5092572;28;20369;-80
2021/06/30 10:12:24;;;;;;;;;;;;;;;-142.75;71.89;76672.66;5093118;28;19912;-79
2021/06/30 10:14:50;;;;;;;;;;;;;;;-142.75;71.35;76660.84;5091248;28;19912;-80
2021/06/30 10:17:16;;;;;;;;;;;;;;;-142.75;71.99;76639.19;5087289;28;19916;-82
2021/06/30 10:19:42;;;;;;;;;;;;;;;-142.75;71.92;76597.84;5093041;28;19957;-82
2021/06/30 10:22:08;;;;;;;;;;;;;;;-142.75;70.83;76572.25;5085251;28;19919;-78
2021/06/30 10:24:33;;;;;;;;;;;;;;;-142.75;70.04;76564.38;5087234;28;19912;-81
2021/06/30 10:26:59;;;;;;;;;;;;;;;-142.75;69.38;76595.88;5083719;28;19923;-80
2021/06/30 10:29:26;;;;;;;;;;;;;;;-142.75;69.57;76605.72;5084481;28;19918;-81
2021/06/30 10:31:54;;;;;;;;;;;;;;;-142.75;69.48;76625.41;5083403;28;19928;-81
2021/06/30 10:34:31;;;;;;;;;;;;;;;-142.75;69.96;76635.25;5091632;28;20264;-80
2021/06/30 10:36:56;;;;;;;;;;;;;;;-142.75;70.98;76629.34;5082909;28;19951;-81
2021/06/30 10:39:40;;;;;;;;;;;;;;;-142.75;70.03;76649.03;5086589;28;20329;-78
2021/06/30 10:42:14;;;;;;;;;;;;;;;-142.75;70.60;76652.97;5091539;28;19941;-79
2021/06/30 10:44:46;;;;;;;;;;;;;;;-142.75;69.95;76654.94;5092278;28;19918;-79
2021/06/30 10:47:30;;;;;;;;;;;;;;;-142.75;70.42;76631.31;5082248;28;20346;-80
2021/06/30 10:50:14;;;;;;;;;;;;;;;-142.75;69.96;76621.47;5082731;28;19951;-79
2021/06/30 10:52:40;;;;;;;;;;;;;;;-142.75;69.52;76593.91;5085607;28;19912;-78
2021/06/30 10:55:05;;;;;;;;;;;;;;;-142.75;67.32;76576.19;5082688;28;19936;-78
2021/06/30 10:57:31;;;;;;;;;;;;;;;-142.75;66.36;76568.31;5092486;28;19922;-78
2021/06/30 11:00:05;;;;;;;;;;;;;;;-142.75;66.73;76564.38;5092061;28;19922;-79
2021/06/30 11:02:32;;;;;;;;;;;;;;;-142.75;66.39;76562.41;5077240;28;19965;-78
2021/06/30 11:05:13;;;;;;;;;;;;;;;-142.75;67.39;76558.47;5094412;28;20374;-82
2021/06/30 11:07:38;;;;;;;;;;;;;;;-142.75;66.70;76580.13;5084244;28;19938;-80
2021/06/30 11:10:16;;;;;;;;;;;;;;;-142.75;67.29;76584.06;5079811;28;19912;-80
2021/06/30 11:12:50;;;;;;;;;;;;;;;-142.75;67.67;76607.69;5080269;28;19962;-80
2021/06/30 11:15:34;;;;;;;;;;;;;;;-142.75;68.46;76641.16;5091873;28;20377;-79
2021/06/30 11:17:59;;;;;;;;;;;;;;;-142.75;69.98;76652.97;5091558;28;19912;-79
2021/06/30 11:20:47;;;;;;;;;;;;;;;-142.75;69.66;76668.72;5081524;28;19916;-78
2021/06/30 11:23:18;;;;;;;;;;;;;;;-142.75;70.35;76664.78;5077808;28;19963;-80
2021/06/30 11:25:44;;;;;;;;;;;;;;;-142.75;70.53;76635.25;5090805;28;19912;-80
2021/06/30 11:28:29;;;;;;;;;;;;;;;-142.75;70.09;76613.59;5086596;28;19919;-81
2021/06/30 11:30:54;;;;;;;;;;;;;;;-142.75;69.62;76584.06;5084297;28;20392;-80
2021/06/30 11:33:20;;;;;;;;;;;;;;;-142.75;69.01;76570.28;5084734;28;19912;-79
2021/06/30 11:35:46;;;;;;;;;;;;;;;-142.75;68.00;76574.22;5091956;28;19931;-82
2021/06/30 11:38:16;;;;;;;;;;;;;;;-142.75;67.78;76589.97;5091031;28;19912;-79
2021/06/30 11:40:58;;;;;;;;;;;;;;;-142.75;67.84;76599.81;5091359;28;19947;-79
2021/06/30 11:43:27;;;;;;;;;;;;;;;-142.75;68.35;76582.09;5083657;28;19912;-79
2021/06/30 11:45:55;;;;;;;;;;;;;;;-142.75;68.73;76574.22;5093962;28;19944;-80
2021/06/30 11:48:20;;;;;;;;;;;;;;;-142.75;67.96;76584.06;5093273;28;19912;-79
2021/06/30 11:50:46;;;;;;;;;;;;;;;-142.75;67.93;76603.75;5091650;28;20013;-80
2021/06/30 11:53:11;;;;;;;;;;;;;;;-142.75;68.07;76641.16;5082246;28;19926;-79
2021/06/30 11:55:39;;;;;;;;;;;;;;;-142.75;69.43;76670.69;5080694;28;20003;-82
2021/06/30 11:58:04;;;;;;;;;;;;;;;-142.75;70.20;76684.47;5091539;28;19919;-79
2021/06/30 12:00:31;;;;;;;;;;;;;;;-142.75;70.17;76700.22;5091371;28;19994;-78
2021/06/30 12:02:57;;;;;;;;;;;;;;;-142.75;70.26;76712.03;5103769;28;19923;-81
2021/06/30 12:05:23;;;;;;;;;;;;;;;-142.75;70.53;76704.16;5079278;28;19912;-79
2021/06/30 12:07:49;;;;;;;;;;;;;;;-142.75;70.95;76694.31;5084134;28;19970;-81
2021/06/30 12:10:15;;;;;;;;;;;;;;;-142.75;70.52;76684.47;5091265;28;20258;-80
2021/06/30 12:12:41;;;;;;;;;;;;;;;-142.75;69.57;76680.53;5091855;28;19934;-80
2021/06/30 12:15:07;;;;;;;;;;;;;;;-142.75;70.12;76662.81;5092203;28;19955;-80
2021/06/30 12:17:32;;;;;;;;;;;;;;;-142.75;70.27;76649.03;5078517;28;19916;-81
2021/06/30 12:20:01;;;;;;;;;;;;;;;-142.75;70.15;76645.09;5091647;28;19973;-81
2021/06/30 12:22:28;;;;;;;;;;;;;;;-142.75;70.47;76613.59;5093057;28;19924;-81
2021/06/30 12:25:00;;;;;;;;;;;;;;;-142.75;68.76;76605.72;5099303;28;19916;-79
2021/06/30 12:27:27;;;;;;;;;;;;;;;-142.75;67.78;76609.66;5090610;28;19920;-81